sensor_id;sensor_type;location;lat;lon;timestamp;temperature;humidity
21171;DHT22;10743;52.160;20.910;2022-12-18T00:01:22;16.60;28.60
21171;DHT22;10743;52.160;20.910;2022-12-18T00:03:53;16.60;28.50
21171;DHT22;10743;52.160;20.910;2022-12-18T00:06:23;16.60;29.00
21171;DHT22;10743;52.160;20.910;2022-12-18T00:08:52;16.60;28.50
21171;DHT22;10743;52.160;20.910;2022-12-18T00:11:21;16.60;28.50
21171;DHT22;10743;52.160;20.910;2022-12-18T00:13:50;16.60;28.40
21171;DHT22;10743;52.160;20.910;2022-12-18T00:16:19;16.70;28.50
21171;DHT22;10743;52.160;20.910;2022-12-18T00:18:48;16.70;28.50
21171;DHT22;10743;52.160;20.910;2022-12-18T00:21:17;16.70;28.50
21171;DHT22;10743;52.160;20.910;2022-12-18T00:23:44;16.70;28.50
21171;DHT22;10743;52.160;20.910;2022-12-18T00:26:14;16.70;29.00
21171;DHT22;10743;52.160;20.910;2022-12-18T00:28:48;16.70;28.50
21171;DHT22;10743;52.160;20.910;2022-12-18T00:31:19;16.70;28.50
21171;DHT22;10743;52.160;20.910;2022-12-18T00:33:48;16.70;28.50
21171;DHT22;10743;52.160;20.910;2022-12-18T00:36:28;16.70;28.50
21171;DHT22;10743;52.160;20.910;2022-12-18T00:38:57;16.70;28.60
21171;DHT22;10743;52.160;20.910;2022-12-18T00:41:25;16.70;28.60
21171;DHT22;10743;52.160;20.910;2022-12-18T00:44:14;16.70;28.50
21171;DHT22;10743;52.160;20.910;2022-12-18T00:46:43;16.80;28.50
21171;DHT22;10743;52.160;20.910;2022-12-18T00:49:11;16.80;28.50
21171;DHT22;10743;52.160;20.910;2022-12-18T00:51:38;16.80;28.60
21171;DHT22;10743;52.160;20.910;2022-12-18T00:54:05;16.80;28.50
21171;DHT22;10743;52.160;20.910;2022-12-18T00:56:35;16.80;29.00
21171;DHT22;10743;52.160;20.910;2022-12-18T00:59:14;16.90;28.60
21171;DHT22;10743;52.160;20.910;2022-12-18T01:01:41;16.90;28.50
21171;DHT22;10743;52.160;20.910;2022-12-18T01:04:09;16.90;28.50
21171;DHT22;10743;52.160;20.910;2022-12-18T01:06:36;16.90;28.50
21171;DHT22;10743;52.160;20.910;2022-12-18T01:09:03;16.90;28.50
21171;DHT22;10743;52.160;20.910;2022-12-18T01:11:31;16.90;28.60
21171;DHT22;10743;52.160;20.910;2022-12-18T01:13:59;16.90;28.50
21171;DHT22;10743;52.160;20.910;2022-12-18T01:16:26;16.90;28.60
21171;DHT22;10743;52.160;20.910;2022-12-18T01:18:56;16.90;28.50
21171;DHT22;10743;52.160;20.910;2022-12-18T01:21:23;16.80;28.60
21171;DHT22;10743;52.160;20.910;2022-12-18T01:23:52;16.80;28.60
21171;DHT22;10743;52.160;20.910;2022-12-18T01:26:23;16.80;28.70
21171;DHT22;10743;52.160;20.910;2022-12-18T01:28:51;16.80;28.70
21171;DHT22;10743;52.160;20.910;2022-12-18T01:31:30;16.80;28.70
21171;DHT22;10743;52.160;20.910;2022-12-18T01:34:02;16.80;28.70
21171;DHT22;10743;52.160;20.910;2022-12-18T01:36:33;16.80;28.60
21171;DHT22;10743;52.160;20.910;2022-12-18T01:39:04;16.90;28.70
21171;DHT22;10743;52.160;20.910;2022-12-18T01:41:38;16.90;29.20
21171;DHT22;10743;52.160;20.910;2022-12-18T01:47:39;16.90;28.60
21171;DHT22;10743;52.160;20.910;2022-12-18T01:52:46;17.00;28.60
21171;DHT22;10743;52.160;20.910;2022-12-18T01:55:17;17.00;28.50
21171;DHT22;10743;52.160;20.910;2022-12-18T01:57:46;17.00;28.50
21171;DHT22;10743;52.160;20.910;2022-12-18T02:00:17;17.00;28.50
21171;DHT22;10743;52.160;20.910;2022-12-18T02:02:46;17.00;28.50
21171;DHT22;10743;52.160;20.910;2022-12-18T02:05:17;17.00;28.60
21171;DHT22;10743;52.160;20.910;2022-12-18T02:08:07;17.00;28.60
21171;DHT22;10743;52.160;20.910;2022-12-18T02:16:52;17.00;28.60
21171;DHT22;10743;52.160;20.910;2022-12-18T02:19:47;17.00;28.50
21171;DHT22;10743;52.160;20.910;2022-12-18T02:28:23;17.00;28.60
21171;DHT22;10743;52.160;20.910;2022-12-18T02:30:56;17.00;28.50
21171;DHT22;10743;52.160;20.910;2022-12-18T02:33:28;17.00;28.60
21171;DHT22;10743;52.160;20.910;2022-12-18T02:35:57;17.00;28.50
21171;DHT22;10743;52.160;20.910;2022-12-18T02:38:28;17.00;28.60
21171;DHT22;10743;52.160;20.910;2022-12-18T02:41:02;17.00;28.60
21171;DHT22;10743;52.160;20.910;2022-12-18T02:43:30;17.00;28.60
21171;DHT22;10743;52.160;20.910;2022-12-18T02:46:00;17.00;28.70
21171;DHT22;10743;52.160;20.910;2022-12-18T02:48:34;17.00;28.60
21171;DHT22;10743;52.160;20.910;2022-12-18T02:54:21;17.00;28.60
21171;DHT22;10743;52.160;20.910;2022-12-18T02:56:56;17.10;28.60
21171;DHT22;10743;52.160;20.910;2022-12-18T02:59:34;17.10;28.60
21171;DHT22;10743;52.160;20.910;2022-12-18T03:02:29;17.10;28.70
21171;DHT22;10743;52.160;20.910;2022-12-18T03:05:03;17.10;28.70
21171;DHT22;10743;52.160;20.910;2022-12-18T03:07:43;17.10;28.80
21171;DHT22;10743;52.160;20.910;2022-12-18T03:10:17;17.10;28.60
21171;DHT22;10743;52.160;20.910;2022-12-18T03:13:13;17.10;28.60
21171;DHT22;10743;52.160;20.910;2022-12-18T03:15:50;17.10;28.60
21171;DHT22;10743;52.160;20.910;2022-12-18T03:18:26;17.10;28.60
21171;DHT22;10743;52.160;20.910;2022-12-18T03:20:58;17.10;28.60
21171;DHT22;10743;52.160;20.910;2022-12-18T03:23:32;17.10;28.60
21171;DHT22;10743;52.160;20.910;2022-12-18T03:26:10;17.10;28.70
21171;DHT22;10743;52.160;20.910;2022-12-18T03:28:52;17.10;28.50
21171;DHT22;10743;52.160;20.910;2022-12-18T03:31:23;17.10;28.50
21171;DHT22;10743;52.160;20.910;2022-12-18T03:33:56;17.10;28.60
21171;DHT22;10743;52.160;20.910;2022-12-18T03:36:33;17.10;28.50
21171;DHT22;10743;52.160;20.910;2022-12-18T03:39:00;17.10;28.50
21171;DHT22;10743;52.160;20.910;2022-12-18T03:41:33;17.10;28.50
21171;DHT22;10743;52.160;20.910;2022-12-18T03:44:53;17.10;28.50
21171;DHT22;10743;52.160;20.910;2022-12-18T03:47:35;17.10;28.50
21171;DHT22;10743;52.160;20.910;2022-12-18T03:50:45;17.10;28.70
21171;DHT22;10743;52.160;20.910;2022-12-18T03:53:29;17.10;28.50
21171;DHT22;10743;52.160;20.910;2022-12-18T03:56:04;17.10;28.60
21171;DHT22;10743;52.160;20.910;2022-12-18T03:58:38;17.10;29.00
21171;DHT22;10743;52.160;20.910;2022-12-18T04:01:16;17.10;28.50
21171;DHT22;10743;52.160;20.910;2022-12-18T04:03:46;17.00;28.50
21171;DHT22;10743;52.160;20.910;2022-12-18T04:06:18;17.00;28.50
21171;DHT22;10743;52.160;20.910;2022-12-18T04:08:46;17.00;28.50
21171;DHT22;10743;52.160;20.910;2022-12-18T04:11:17;17.00;28.50
21171;DHT22;10743;52.160;20.910;2022-12-18T04:13:46;17.00;28.60
21171;DHT22;10743;52.160;20.910;2022-12-18T04:16:22;17.00;28.50
21171;DHT22;10743;52.160;20.910;2022-12-18T04:18:54;17.00;28.50
21171;DHT22;10743;52.160;20.910;2022-12-18T04:21:23;16.90;28.40
21171;DHT22;10743;52.160;20.910;2022-12-18T04:23:51;16.90;28.50
21171;DHT22;10743;52.160;20.910;2022-12-18T04:26:21;16.90;28.40
21171;DHT22;10743;52.160;20.910;2022-12-18T04:29:08;16.90;28.40
21171;DHT22;10743;52.160;20.910;2022-12-18T04:31:36;16.90;28.40
21171;DHT22;10743;52.160;20.910;2022-12-18T04:34:03;17.00;28.40
21171;DHT22;10743;52.160;20.910;2022-12-18T04:36:37;16.90;28.40
21171;DHT22;10743;52.160;20.910;2022-12-18T04:39:04;16.90;28.30
21171;DHT22;10743;52.160;20.910;2022-12-18T04:41:31;16.90;28.30
21171;DHT22;10743;52.160;20.910;2022-12-18T04:43:59;16.90;28.40
21171;DHT22;10743;52.160;20.910;2022-12-18T04:46:26;16.90;28.40
21171;DHT22;10743;52.160;20.910;2022-12-18T04:48:53;16.90;28.30
21171;DHT22;10743;52.160;20.910;2022-12-18T04:51:20;16.90;28.20
21171;DHT22;10743;52.160;20.910;2022-12-18T04:53:53;16.90;28.10
21171;DHT22;10743;52.160;20.910;2022-12-18T04:56:20;16.90;28.10
21171;DHT22;10743;52.160;20.910;2022-12-18T04:58:48;16.90;27.90
21171;DHT22;10743;52.160;20.910;2022-12-18T05:01:16;16.90;27.80
21171;DHT22;10743;52.160;20.910;2022-12-18T05:03:44;16.90;27.90
21171;DHT22;10743;52.160;20.910;2022-12-18T05:06:12;16.90;27.70
21171;DHT22;10743;52.160;20.910;2022-12-18T05:08:39;16.80;27.70
21171;DHT22;10743;52.160;20.910;2022-12-18T05:11:09;16.80;27.70
21171;DHT22;10743;52.160;20.910;2022-12-18T05:13:37;16.80;27.70
21171;DHT22;10743;52.160;20.910;2022-12-18T05:16:06;16.80;27.60
21171;DHT22;10743;52.160;20.910;2022-12-18T05:18:34;16.80;27.50
21171;DHT22;10743;52.160;20.910;2022-12-18T05:21:01;16.80;27.50
21171;DHT22;10743;52.160;20.910;2022-12-18T05:23:28;16.80;27.40
21171;DHT22;10743;52.160;20.910;2022-12-18T05:25:59;16.70;27.50
21171;DHT22;10743;52.160;20.910;2022-12-18T05:28:29;16.70;27.50
21171;DHT22;10743;52.160;20.910;2022-12-18T05:30:59;16.70;27.40
21171;DHT22;10743;52.160;20.910;2022-12-18T05:33:30;16.70;28.00
21171;DHT22;10743;52.160;20.910;2022-12-18T05:36:00;16.70;27.40
21171;DHT22;10743;52.160;20.910;2022-12-18T05:38:29;16.70;27.40
21171;DHT22;10743;52.160;20.910;2022-12-18T05:40:57;16.70;27.50
21171;DHT22;10743;52.160;20.910;2022-12-18T05:43:26;16.70;27.50
21171;DHT22;10743;52.160;20.910;2022-12-18T05:45:54;16.60;27.60
21171;DHT22;10743;52.160;20.910;2022-12-18T05:48:21;16.70;27.60
21171;DHT22;10743;52.160;20.910;2022-12-18T05:50:49;16.70;27.80
21171;DHT22;10743;52.160;20.910;2022-12-18T05:53:19;16.60;27.80
21171;DHT22;10743;52.160;20.910;2022-12-18T05:55:47;16.60;27.80
21171;DHT22;10743;52.160;20.910;2022-12-18T05:58:14;16.60;27.80
21171;DHT22;10743;52.160;20.910;2022-12-18T06:00:44;16.70;28.40
21171;DHT22;10743;52.160;20.910;2022-12-18T06:03:13;16.60;28.00
21171;DHT22;10743;52.160;20.910;2022-12-18T06:05:42;16.60;27.90
21171;DHT22;10743;52.160;20.910;2022-12-18T06:08:11;16.60;28.00
21171;DHT22;10743;52.160;20.910;2022-12-18T06:10:40;16.60;28.10
21171;DHT22;10743;52.160;20.910;2022-12-18T06:13:07;16.60;28.10
21171;DHT22;10743;52.160;20.910;2022-12-18T06:15:38;16.60;28.10
21171;DHT22;10743;52.160;20.910;2022-12-18T06:18:05;16.60;28.20
21171;DHT22;10743;52.160;20.910;2022-12-18T06:20:32;16.60;28.20
21171;DHT22;10743;52.160;20.910;2022-12-18T06:23:00;16.60;28.20
21171;DHT22;10743;52.160;20.910;2022-12-18T06:25:27;16.50;28.20
21171;DHT22;10743;52.160;20.910;2022-12-18T06:27:54;16.50;28.30
21171;DHT22;10743;52.160;20.910;2022-12-18T06:30:22;16.60;28.40
21171;DHT22;10743;52.160;20.910;2022-12-18T06:32:49;16.50;28.40
21171;DHT22;10743;52.160;20.910;2022-12-18T06:35:22;16.50;28.40
21171;DHT22;10743;52.160;20.910;2022-12-18T06:37:49;16.50;28.30
21171;DHT22;10743;52.160;20.910;2022-12-18T06:40:16;16.50;28.40
21171;DHT22;10743;52.160;20.910;2022-12-18T06:42:43;16.50;28.40
21171;DHT22;10743;52.160;20.910;2022-12-18T06:45:10;16.50;28.40
21171;DHT22;10743;52.160;20.910;2022-12-18T06:47:38;16.50;28.40
21171;DHT22;10743;52.160;20.910;2022-12-18T06:50:05;16.50;28.30
21171;DHT22;10743;52.160;20.910;2022-12-18T06:52:33;16.50;29.00
21171;DHT22;10743;52.160;20.910;2022-12-18T06:55:00;16.50;28.50
21171;DHT22;10743;52.160;20.910;2022-12-18T06:57:27;16.50;28.40
21171;DHT22;10743;52.160;20.910;2022-12-18T06:59:54;16.40;28.40
21171;DHT22;10743;52.160;20.910;2022-12-18T07:02:21;16.50;28.50
21171;DHT22;10743;52.160;20.910;2022-12-18T07:04:48;16.60;28.50
21171;DHT22;10743;52.160;20.910;2022-12-18T07:07:15;16.60;28.50
21171;DHT22;10743;52.160;20.910;2022-12-18T07:09:42;16.50;28.50
21171;DHT22;10743;52.160;20.910;2022-12-18T07:12:09;16.50;28.50
21171;DHT22;10743;52.160;20.910;2022-12-18T07:14:36;16.50;28.60
21171;DHT22;10743;52.160;20.910;2022-12-18T07:17:03;16.50;28.70
21171;DHT22;10743;52.160;20.910;2022-12-18T07:19:32;16.50;28.70
21171;DHT22;10743;52.160;20.910;2022-12-18T07:21:59;16.40;28.60
21171;DHT22;10743;52.160;20.910;2022-12-18T07:24:27;16.40;28.60
21171;DHT22;10743;52.160;20.910;2022-12-18T07:26:55;16.40;28.70
21171;DHT22;10743;52.160;20.910;2022-12-18T07:29:22;16.40;28.70
21171;DHT22;10743;52.160;20.910;2022-12-18T07:31:49;16.40;28.70
21171;DHT22;10743;52.160;20.910;2022-12-18T07:34:16;16.40;28.70
21171;DHT22;10743;52.160;20.910;2022-12-18T07:36:44;16.40;28.70
21171;DHT22;10743;52.160;20.910;2022-12-18T07:39:11;16.40;28.70
21171;DHT22;10743;52.160;20.910;2022-12-18T07:41:38;16.40;28.80
21171;DHT22;10743;52.160;20.910;2022-12-18T07:44:15;16.30;28.80
21171;DHT22;10743;52.160;20.910;2022-12-18T07:46:42;16.40;28.90
21171;DHT22;10743;52.160;20.910;2022-12-18T07:49:09;16.30;28.90
21171;DHT22;10743;52.160;20.910;2022-12-18T07:51:35;16.30;28.90
21171;DHT22;10743;52.160;20.910;2022-12-18T07:54:03;16.40;29.00
21171;DHT22;10743;52.160;20.910;2022-12-18T07:56:30;16.30;29.00
21171;DHT22;10743;52.160;20.910;2022-12-18T07:58:58;16.30;29.10
21171;DHT22;10743;52.160;20.910;2022-12-18T08:01:26;16.30;29.20
21171;DHT22;10743;52.160;20.910;2022-12-18T08:03:53;16.30;29.10
21171;DHT22;10743;52.160;20.910;2022-12-18T08:06:20;16.20;29.10
21171;DHT22;10743;52.160;20.910;2022-12-18T08:08:54;16.20;29.10
21171;DHT22;10743;52.160;20.910;2022-12-18T08:11:22;16.30;29.10
21171;DHT22;10743;52.160;20.910;2022-12-18T08:13:51;16.30;29.10
21171;DHT22;10743;52.160;20.910;2022-12-18T08:16:18;16.30;29.10
21171;DHT22;10743;52.160;20.910;2022-12-18T08:18:46;16.30;29.20
21171;DHT22;10743;52.160;20.910;2022-12-18T08:21:17;16.30;29.20
21171;DHT22;10743;52.160;20.910;2022-12-18T08:23:48;16.30;29.20
21171;DHT22;10743;52.160;20.910;2022-12-18T08:26:18;16.20;29.10
21171;DHT22;10743;52.160;20.910;2022-12-18T08:28:46;16.30;29.10
21171;DHT22;10743;52.160;20.910;2022-12-18T08:31:13;16.30;29.00
21171;DHT22;10743;52.160;20.910;2022-12-18T08:33:41;16.30;29.00
21171;DHT22;10743;52.160;20.910;2022-12-18T08:36:09;16.30;29.10
21171;DHT22;10743;52.160;20.910;2022-12-18T08:38:37;16.20;28.90
21171;DHT22;10743;52.160;20.910;2022-12-18T08:41:12;16.20;29.10
21171;DHT22;10743;52.160;20.910;2022-12-18T08:43:40;16.20;29.50
21171;DHT22;10743;52.160;20.910;2022-12-18T08:46:27;16.20;29.10
21171;DHT22;10743;52.160;20.910;2022-12-18T08:48:59;16.10;29.20
21171;DHT22;10743;52.160;20.910;2022-12-18T08:51:26;16.10;29.20
21171;DHT22;10743;52.160;20.910;2022-12-18T08:53:53;16.10;29.10
21171;DHT22;10743;52.160;20.910;2022-12-18T08:56:20;16.10;29.30
21171;DHT22;10743;52.160;20.910;2022-12-18T08:58:47;16.10;29.40
21171;DHT22;10743;52.160;20.910;2022-12-18T09:01:14;16.10;29.30
21171;DHT22;10743;52.160;20.910;2022-12-18T09:03:41;16.10;29.40
21171;DHT22;10743;52.160;20.910;2022-12-18T09:06:14;16.10;29.40
21171;DHT22;10743;52.160;20.910;2022-12-18T09:08:43;16.10;29.40
21171;DHT22;10743;52.160;20.910;2022-12-18T09:11:23;16.30;29.40
21171;DHT22;10743;52.160;20.910;2022-12-18T09:13:52;16.20;29.10
21171;DHT22;10743;52.160;20.910;2022-12-18T09:16:21;16.20;29.00
21171;DHT22;10743;52.160;20.910;2022-12-18T09:18:58;16.10;29.50
21171;DHT22;10743;52.160;20.910;2022-12-18T09:21:28;16.10;29.20
21171;DHT22;10743;52.160;20.910;2022-12-18T09:24:03;16.00;29.10
21171;DHT22;10743;52.160;20.910;2022-12-18T09:26:34;16.00;29.20
21171;DHT22;10743;52.160;20.910;2022-12-18T09:29:02;16.00;29.30
21171;DHT22;10743;52.160;20.910;2022-12-18T09:31:30;15.90;29.30
21171;DHT22;10743;52.160;20.910;2022-12-18T09:33:57;15.90;29.40
21171;DHT22;10743;52.160;20.910;2022-12-18T09:36:24;15.90;29.60
21171;DHT22;10743;52.160;20.910;2022-12-18T09:38:51;16.00;29.30
21171;DHT22;10743;52.160;20.910;2022-12-18T09:41:45;15.90;29.50
21171;DHT22;10743;52.160;20.910;2022-12-18T09:44:24;15.90;29.40
21171;DHT22;10743;52.160;20.910;2022-12-18T09:46:54;15.90;29.30
21171;DHT22;10743;52.160;20.910;2022-12-18T09:49:30;15.90;29.30
21171;DHT22;10743;52.160;20.910;2022-12-18T09:52:14;16.00;29.50
21171;DHT22;10743;52.160;20.910;2022-12-18T09:54:47;15.90;29.50
21171;DHT22;10743;52.160;20.910;2022-12-18T09:57:21;16.00;29.40
21171;DHT22;10743;52.160;20.910;2022-12-18T10:00:25;15.90;29.40
21171;DHT22;10743;52.160;20.910;2022-12-18T10:02:54;15.90;29.60
21171;DHT22;10743;52.160;20.910;2022-12-18T10:06:02;15.90;29.50
21171;DHT22;10743;52.160;20.910;2022-12-18T10:08:51;15.90;29.40
21171;DHT22;10743;52.160;20.910;2022-12-18T10:19:44;16.00;29.40
21171;DHT22;10743;52.160;20.910;2022-12-18T10:25:19;16.00;29.30
21171;DHT22;10743;52.160;20.910;2022-12-18T10:27:53;16.00;29.30
21171;DHT22;10743;52.160;20.910;2022-12-18T10:30:24;15.90;29.50
21171;DHT22;10743;52.160;20.910;2022-12-18T10:32:52;16.00;29.60
21171;DHT22;10743;52.160;20.910;2022-12-18T10:35:26;16.10;29.70
21171;DHT22;10743;52.160;20.910;2022-12-18T10:38:26;16.00;29.60
21171;DHT22;10743;52.160;20.910;2022-12-18T10:41:00;16.10;29.50
21171;DHT22;10743;52.160;20.910;2022-12-18T10:43:36;16.20;29.70
21171;DHT22;10743;52.160;20.910;2022-12-18T10:48:52;16.20;29.60
21171;DHT22;10743;52.160;20.910;2022-12-18T10:51:34;16.30;29.60
21171;DHT22;10743;52.160;20.910;2022-12-18T10:54:21;16.40;29.50
21171;DHT22;10743;52.160;20.910;2022-12-18T10:56:49;16.40;29.40
21171;DHT22;10743;52.160;20.910;2022-12-18T10:59:17;16.50;29.30
21171;DHT22;10743;52.160;20.910;2022-12-18T11:04:28;16.50;29.10
21171;DHT22;10743;52.160;20.910;2022-12-18T11:07:03;16.50;29.00
21171;DHT22;10743;52.160;20.910;2022-12-18T11:09:35;16.50;28.90
21171;DHT22;10743;52.160;20.910;2022-12-18T11:12:27;16.60;29.40
21171;DHT22;10743;52.160;20.910;2022-12-18T11:14:54;16.60;29.30
21171;DHT22;10743;52.160;20.910;2022-12-18T11:17:33;16.60;29.30
21171;DHT22;10743;52.160;20.910;2022-12-18T11:20:04;16.70;29.40
21171;DHT22;10743;52.160;20.910;2022-12-18T11:22:35;16.70;29.10
21171;DHT22;10743;52.160;20.910;2022-12-18T11:25:18;16.70;29.10
21171;DHT22;10743;52.160;20.910;2022-12-18T11:28:02;16.80;29.00
21171;DHT22;10743;52.160;20.910;2022-12-18T11:30:37;16.80;28.80
21171;DHT22;10743;52.160;20.910;2022-12-18T11:33:21;16.80;28.80
21171;DHT22;10743;52.160;20.910;2022-12-18T11:36:00;16.80;28.70
21171;DHT22;10743;52.160;20.910;2022-12-18T11:38:36;16.80;28.70
21171;DHT22;10743;52.160;20.910;2022-12-18T11:43:58;16.80;28.70
21171;DHT22;10743;52.160;20.910;2022-12-18T11:46:39;16.80;28.80
21171;DHT22;10743;52.160;20.910;2022-12-18T11:49:34;16.90;28.90
21171;DHT22;10743;52.160;20.910;2022-12-18T11:52:09;16.90;28.70
21171;DHT22;10743;52.160;20.910;2022-12-18T11:54:41;16.80;28.70
21171;DHT22;10743;52.160;20.910;2022-12-18T12:00:24;16.90;29.00
21171;DHT22;10743;52.160;20.910;2022-12-18T12:03:26;16.90;29.00
21171;DHT22;10743;52.160;20.910;2022-12-18T12:06:41;16.90;29.00
21171;DHT22;10743;52.160;20.910;2022-12-18T12:09:33;16.90;28.90
21171;DHT22;10743;52.160;20.910;2022-12-18T12:12:27;16.90;29.00
21171;DHT22;10743;52.160;20.910;2022-12-18T12:18:22;16.90;28.80
21171;DHT22;10743;52.160;20.910;2022-12-18T12:21:17;17.10;28.60
21171;DHT22;10743;52.160;20.910;2022-12-18T12:38:30;18.60;27.10
21171;DHT22;10743;52.160;20.910;2022-12-18T12:41:21;18.70;27.10
21171;DHT22;10743;52.160;20.910;2022-12-18T12:44:16;18.80;26.90
21171;DHT22;10743;52.160;20.910;2022-12-18T12:46:47;18.90;26.80
21171;DHT22;10743;52.160;20.910;2022-12-18T12:49:18;19.10;26.60
21171;DHT22;10743;52.160;20.910;2022-12-18T12:52:34;19.20;26.70
21171;DHT22;10743;52.160;20.910;2022-12-18T12:55:05;19.20;26.60
21171;DHT22;10743;52.160;20.910;2022-12-18T12:57:44;19.30;26.30
21171;DHT22;10743;52.160;20.910;2022-12-18T13:00:16;19.40;26.40
21171;DHT22;10743;52.160;20.910;2022-12-18T13:03:15;19.40;26.20
21171;DHT22;10743;52.160;20.910;2022-12-18T13:06:19;19.50;26.00
21171;DHT22;10743;52.160;20.910;2022-12-18T13:09:00;19.50;25.90
21171;DHT22;10743;52.160;20.910;2022-12-18T13:11:35;19.50;25.80
21171;DHT22;10743;52.160;20.910;2022-12-18T13:14:27;19.50;25.80
21171;DHT22;10743;52.160;20.910;2022-12-18T13:20:06;19.50;25.90
21171;DHT22;10743;52.160;20.910;2022-12-18T13:22:58;19.50;26.00
21171;DHT22;10743;52.160;20.910;2022-12-18T13:25:32;19.50;25.80
21171;DHT22;10743;52.160;20.910;2022-12-18T13:38:34;19.50;25.90
21171;DHT22;10743;52.160;20.910;2022-12-18T13:41:22;19.50;26.10
21171;DHT22;10743;52.160;20.910;2022-12-18T13:43:54;19.50;26.10
21171;DHT22;10743;52.160;20.910;2022-12-18T13:46:44;19.50;25.90
21171;DHT22;10743;52.160;20.910;2022-12-18T13:51:53;19.50;25.90
21171;DHT22;10743;52.160;20.910;2022-12-18T13:54:35;19.50;25.90
21171;DHT22;10743;52.160;20.910;2022-12-18T13:57:05;19.50;26.10
21171;DHT22;10743;52.160;20.910;2022-12-18T13:59:50;19.50;25.90
21171;DHT22;10743;52.160;20.910;2022-12-18T14:02:22;19.50;25.80
21171;DHT22;10743;52.160;20.910;2022-12-18T14:04:52;19.50;25.70
21171;DHT22;10743;52.160;20.910;2022-12-18T14:07:22;19.50;25.60
21171;DHT22;10743;52.160;20.910;2022-12-18T14:09:57;19.50;25.90
21171;DHT22;10743;52.160;20.910;2022-12-18T14:12:50;19.50;26.00
21171;DHT22;10743;52.160;20.910;2022-12-18T14:15:33;19.50;26.40
21171;DHT22;10743;52.160;20.910;2022-12-18T14:21:06;19.50;25.70
21171;DHT22;10743;52.160;20.910;2022-12-18T14:23:43;19.50;25.70
21171;DHT22;10743;52.160;20.910;2022-12-18T14:28:56;19.40;25.70
21171;DHT22;10743;52.160;20.910;2022-12-18T14:31:29;19.50;25.90
21171;DHT22;10743;52.160;20.910;2022-12-18T14:33:56;19.40;25.70
21171;DHT22;10743;52.160;20.910;2022-12-18T14:36:26;19.30;25.70
21171;DHT22;10743;52.160;20.910;2022-12-18T14:38:56;19.20;25.70
21171;DHT22;10743;52.160;20.910;2022-12-18T14:41:25;19.10;26.10
21171;DHT22;10743;52.160;20.910;2022-12-18T14:43:54;19.00;26.20
21171;DHT22;10743;52.160;20.910;2022-12-18T14:46:38;18.80;25.90
21171;DHT22;10743;52.160;20.910;2022-12-18T14:52:06;18.50;26.50
21171;DHT22;10743;52.160;20.910;2022-12-18T14:55:00;18.20;27.00
21171;DHT22;10743;52.160;20.910;2022-12-18T14:57:36;18.00;26.90
21171;DHT22;10743;52.160;20.910;2022-12-18T15:00:06;17.80;27.20
21171;DHT22;10743;52.160;20.910;2022-12-18T15:02:35;17.70;27.30
21171;DHT22;10743;52.160;20.910;2022-12-18T15:05:16;17.60;27.30
21171;DHT22;10743;52.160;20.910;2022-12-18T15:07:47;17.60;27.50
21171;DHT22;10743;52.160;20.910;2022-12-18T15:10:22;17.50;27.50
21171;DHT22;10743;52.160;20.910;2022-12-18T15:20:56;17.20;28.00
21171;DHT22;10743;52.160;20.910;2022-12-18T15:26:13;17.10;27.90
21171;DHT22;10743;52.160;20.910;2022-12-18T15:28:46;17.10;27.90
21171;DHT22;10743;52.160;20.910;2022-12-18T15:31:29;17.10;27.90
21171;DHT22;10743;52.160;20.910;2022-12-18T15:36:26;17.00;28.10
21171;DHT22;10743;52.160;20.910;2022-12-18T15:38:55;17.00;28.20
21171;DHT22;10743;52.160;20.910;2022-12-18T15:41:33;16.90;28.10
21171;DHT22;10743;52.160;20.910;2022-12-18T15:44:03;16.90;28.00
21171;DHT22;10743;52.160;20.910;2022-12-18T15:46:42;16.90;28.00
21171;DHT22;10743;52.160;20.910;2022-12-18T15:49:09;16.90;27.90
21171;DHT22;10743;52.160;20.910;2022-12-18T15:51:38;16.90;28.10
21171;DHT22;10743;52.160;20.910;2022-12-18T15:54:12;16.90;28.00
21171;DHT22;10743;52.160;20.910;2022-12-18T15:56:40;16.80;28.00
21171;DHT22;10743;52.160;20.910;2022-12-18T15:59:26;16.80;28.10
21171;DHT22;10743;52.160;20.910;2022-12-18T16:01:53;16.80;28.10
21171;DHT22;10743;52.160;20.910;2022-12-18T16:04:22;16.80;28.20
21171;DHT22;10743;52.160;20.910;2022-12-18T16:06:50;16.70;28.20
21171;DHT22;10743;52.160;20.910;2022-12-18T16:09:38;16.70;28.30
21171;DHT22;10743;52.160;20.910;2022-12-18T16:12:21;16.70;28.30
21171;DHT22;10743;52.160;20.910;2022-12-18T16:14:50;16.70;28.30
21171;DHT22;10743;52.160;20.910;2022-12-18T16:17:17;16.70;28.50
21171;DHT22;10743;52.160;20.910;2022-12-18T16:19:44;16.60;28.30
21171;DHT22;10743;52.160;20.910;2022-12-18T16:22:23;16.60;28.40
21171;DHT22;10743;52.160;20.910;2022-12-18T16:24:55;16.60;28.40
21171;DHT22;10743;52.160;20.910;2022-12-18T16:27:24;16.50;28.30
21171;DHT22;10743;52.160;20.910;2022-12-18T16:29:51;16.40;28.40
21171;DHT22;10743;52.160;20.910;2022-12-18T16:32:20;16.40;28.50
21171;DHT22;10743;52.160;20.910;2022-12-18T16:34:49;16.40;28.50
21171;DHT22;10743;52.160;20.910;2022-12-18T16:37:16;16.40;28.50
21171;DHT22;10743;52.160;20.910;2022-12-18T16:39:44;16.40;28.50
21171;DHT22;10743;52.160;20.910;2022-12-18T16:42:14;16.30;28.50
21171;DHT22;10743;52.160;20.910;2022-12-18T16:44:44;16.30;28.50
21171;DHT22;10743;52.160;20.910;2022-12-18T16:47:13;16.20;28.50
21171;DHT22;10743;52.160;20.910;2022-12-18T16:49:41;16.20;28.70
21171;DHT22;10743;52.160;20.910;2022-12-18T16:52:12;16.20;28.80
21171;DHT22;10743;52.160;20.910;2022-12-18T16:54:39;16.20;28.80
21171;DHT22;10743;52.160;20.910;2022-12-18T16:57:06;16.20;28.80
21171;DHT22;10743;52.160;20.910;2022-12-18T16:59:35;16.20;28.80
21171;DHT22;10743;52.160;20.910;2022-12-18T17:02:03;16.20;28.80
21171;DHT22;10743;52.160;20.910;2022-12-18T17:04:31;16.20;28.80
21171;DHT22;10743;52.160;20.910;2022-12-18T17:06:58;16.30;28.80
21171;DHT22;10743;52.160;20.910;2022-12-18T17:09:25;16.30;28.60
21171;DHT22;10743;52.160;20.910;2022-12-18T17:11:53;16.30;28.60
21171;DHT22;10743;52.160;20.910;2022-12-18T17:14:26;16.30;28.60
21171;DHT22;10743;52.160;20.910;2022-12-18T17:16:54;16.30;28.70
21171;DHT22;10743;52.160;20.910;2022-12-18T17:19:42;16.20;28.60
21171;DHT22;10743;52.160;20.910;2022-12-18T17:22:10;16.20;28.60
21171;DHT22;10743;52.160;20.910;2022-12-18T17:24:37;16.30;28.60
21171;DHT22;10743;52.160;20.910;2022-12-18T17:27:04;16.30;28.60
21171;DHT22;10743;52.160;20.910;2022-12-18T17:29:31;16.30;28.70
21171;DHT22;10743;52.160;20.910;2022-12-18T17:31:58;16.30;28.60